createdAt,value
2023-02-06T00:03:47.654Z,-5.47
2023-02-06T00:08:50.601Z,-5.46
2023-02-06T00:13:53.563Z,-5.45
2023-02-06T00:18:59.549Z,-5.57
2023-02-06T00:24:03.381Z,-5.52
2023-02-06T00:29:06.353Z,-5.54
2023-02-06T00:34:10.635Z,-5.52
2023-02-06T00:39:15.801Z,-5.58
2023-02-06T00:44:18.762Z,-5.53
2023-02-06T00:49:23.268Z,-5.44
2023-02-06T00:54:27.067Z,-5.53
2023-02-06T00:59:29.970Z,-5.62
2023-02-06T01:04:35.554Z,-5.60
2023-02-06T01:09:38.601Z,-5.70
2023-02-06T01:14:41.609Z,-5.63
2023-02-06T01:19:48.918Z,-5.56
2023-02-06T01:24:51.948Z,-5.58
2023-02-06T01:29:55.040Z,-5.62
2023-02-06T01:34:59.317Z,-5.43
2023-02-06T01:40:02.238Z,-5.52
2023-02-06T01:45:39.016Z,-5.61
2023-02-06T01:50:47.494Z,-5.72
2023-02-06T01:55:53.720Z,-5.64
2023-02-06T02:00:58.637Z,-5.78
2023-02-06T02:06:08.686Z,-5.88
2023-02-06T02:11:16.171Z,-5.64
2023-02-06T02:16:24.309Z,-5.57
2023-02-06T02:21:53.584Z,-5.49
2023-02-06T02:27:32.227Z,-5.46
2023-02-06T02:32:52.656Z,-5.43
2023-02-06T02:38:05.074Z,-5.45
2023-02-06T02:43:17.543Z,-5.54
2023-02-06T02:48:25.430Z,-5.53
2023-02-06T02:53:29.922Z,-5.57
2023-02-06T02:58:36.575Z,-5.61
2023-02-06T03:03:44.651Z,-5.69
2023-02-06T03:08:57.827Z,-5.70
2023-02-06T03:14:07.392Z,-5.73
2023-02-06T03:19:15.286Z,-5.61
2023-02-06T03:24:23.666Z,-5.65
2023-02-06T03:29:29.222Z,-5.56
2023-02-06T03:34:39.005Z,-5.56
2023-02-06T03:39:43.575Z,-5.71
2023-02-06T03:44:50.634Z,-5.59
2023-02-06T03:49:56.269Z,-5.54
2023-02-06T03:55:05.022Z,-5.40
2023-02-06T04:00:09.041Z,-5.68
2023-02-06T04:05:19.383Z,-5.70
2023-02-06T04:10:26.113Z,-5.80
2023-02-06T04:15:29.382Z,-5.62
2023-02-06T04:20:32.836Z,-5.11
2023-02-06T04:25:37.424Z,-4.74
2023-02-06T04:30:40.899Z,-4.61
2023-02-06T04:35:43.933Z,-4.48
2023-02-06T04:40:48.217Z,-4.90
2023-02-06T04:45:51.194Z,-4.77
2023-02-06T04:50:54.173Z,-5.30
2023-02-06T04:56:04.361Z,-5.04
2023-02-06T05:01:08.087Z,-4.73
2023-02-06T05:06:11.030Z,-4.44
2023-02-06T05:11:15.332Z,-4.27
2023-02-06T05:16:18.896Z,-4.19
2023-02-06T05:21:22.034Z,-4.07
2023-02-06T05:26:26.248Z,-4.15
2023-02-06T05:31:29.281Z,-3.92
2023-02-06T05:36:32.246Z,-3.69
2023-02-06T05:41:36.581Z,-3.56
2023-02-06T05:46:39.568Z,-3.49
2023-02-06T05:51:42.645Z,-3.43
2023-02-06T05:56:46.911Z,-3.22
2023-02-06T06:01:49.850Z,-3.33
2023-02-06T06:06:52.916Z,-3.21
2023-02-06T06:11:57.234Z,-3.18
2023-02-06T06:17:00.259Z,-3.14
2023-02-06T06:22:03.255Z,-3.13
2023-02-06T06:27:10.577Z,-2.98
2023-02-06T06:32:13.459Z,-3.12
2023-02-06T06:37:16.348Z,-3.11
2023-02-06T06:42:20.670Z,-3.02
2023-02-06T06:47:23.537Z,-2.99
2023-02-06T06:52:26.440Z,-2.57
2023-02-06T06:57:33.179Z,-2.69
2023-02-06T07:02:36.123Z,-2.69
2023-02-06T07:07:40.163Z,-2.57
2023-02-06T07:12:44.576Z,-2.54
2023-02-06T07:17:47.591Z,-2.66
2023-02-06T07:22:50.525Z,-2.51
2023-02-06T07:27:54.775Z,-2.47
2023-02-06T07:32:57.686Z,-2.30
2023-02-06T07:38:00.586Z,-2.10
2023-02-06T07:43:07.393Z,-1.97
2023-02-06T07:48:11.970Z,-1.82
2023-02-06T07:53:14.877Z,-1.80
2023-02-06T07:58:19.161Z,-1.67
2023-02-06T08:03:22.170Z,-1.55
2023-02-06T08:08:25.061Z,-1.57
2023-02-06T08:13:29.326Z,-1.48
2023-02-06T08:18:32.287Z,-1.42
2023-02-06T08:23:35.426Z,-1.27
2023-02-06T08:28:42.141Z,-1.21
2023-02-06T08:33:45.781Z,-1.28
2023-02-06T08:38:48.794Z,-1.12
2023-02-06T08:43:55.368Z,-1.05
2023-02-06T08:48:59.039Z,-0.99
2023-02-06T08:54:04.326Z,-0.94
2023-02-06T08:59:10.726Z,-0.84
2023-02-06T09:04:14.968Z,-0.72
2023-02-06T09:09:18.011Z,-0.74
2023-02-06T09:14:22.317Z,-0.65
2023-02-06T09:19:25.629Z,-0.49
2023-02-06T09:24:30.204Z,-0.50
2023-02-06T09:29:34.705Z,-0.43
2023-02-06T09:34:37.746Z,-0.38
2023-02-06T09:39:40.609Z,-0.62
2023-02-06T09:44:49.259Z,-0.98
2023-02-06T09:49:55.191Z,-0.87
2023-02-06T09:55:04.151Z,-0.58
2023-02-06T10:00:15.749Z,-0.52
2023-02-06T10:05:26.296Z,-0.52
2023-02-06T10:10:37.850Z,-0.55
2023-02-06T10:15:47.084Z,-0.37
2023-02-06T10:20:54.645Z,-0.09
2023-02-06T10:26:06.097Z,0.11
2023-02-06T10:31:22.509Z,0.28
2023-02-06T10:36:46.218Z,-0.28
2023-02-06T10:41:57.913Z,-0.86
2023-02-06T10:47:02.509Z,-0.05
2023-02-06T10:52:26.685Z,0.35
2023-02-06T10:57:31.053Z,0.07
2023-02-06T11:02:44.006Z,0.26
2023-02-06T11:07:49.814Z,-0.30
2023-02-06T11:13:03.960Z,-0.21
2023-02-06T11:18:14.856Z,-0.50
2023-02-06T11:23:20.084Z,-0.32
2023-02-06T11:28:24.850Z,-0.08
2023-02-06T11:33:37.940Z,0.43
2023-02-06T11:38:55.445Z,0.30
2023-02-06T11:44:02.690Z,0.59
2023-02-06T11:49:23.475Z,0.58
2023-02-06T11:54:28.996Z,0.74
2023-02-06T11:59:34.954Z,0.30
2023-02-06T12:04:41.827Z,0.84
2023-02-06T12:09:44.819Z,1.54
2023-02-06T12:14:50.454Z,1.34
2023-02-06T12:20:02.501Z,1.44
2023-02-06T12:25:06.017Z,1.78
2023-02-06T12:30:27.869Z,1.07
2023-02-06T12:35:37.675Z,1.16
2023-02-06T12:40:49.443Z,1.64
2023-02-06T12:46:00.743Z,1.87
2023-02-06T12:51:14.844Z,2.02
2023-02-06T12:56:26.261Z,1.85
2023-02-06T13:01:48.911Z,1.46
2023-02-06T13:06:55.930Z,1.27
2023-02-06T13:12:09.516Z,0.58
2023-02-06T13:17:19.053Z,1.22
2023-02-06T13:22:35.332Z,1.42
2023-02-06T13:27:40.256Z,1.43
2023-02-06T13:32:46.334Z,1.76
2023-02-06T13:38:10.538Z,1.78
2023-02-06T13:43:19.685Z,1.95
2023-02-06T13:48:52.938Z,1.86
2023-02-06T13:54:20.722Z,1.79
2023-02-06T13:59:29.224Z,1.23
2023-02-06T14:04:33.392Z,1.36
2023-02-06T14:10:13.276Z,1.05
2023-02-06T14:15:26.595Z,0.82
2023-02-06T14:20:39.169Z,1.15
2023-02-06T14:25:57.121Z,0.90
2023-02-06T14:31:12.583Z,0.56
2023-02-06T14:36:35.350Z,0.70
2023-02-06T14:41:40.431Z,0.83
2023-02-06T14:46:43.413Z,0.44
2023-02-06T14:51:51.620Z,0.55
2023-02-06T14:56:59.362Z,0.69
2023-02-06T15:02:14.907Z,0.82
2023-02-06T15:07:24.715Z,0.70
2023-02-06T15:12:32.159Z,0.77
2023-02-06T15:17:35.136Z,0.65
2023-02-06T15:22:38.126Z,0.63
2023-02-06T15:27:42.540Z,0.64
2023-02-06T15:32:49.483Z,0.18
2023-02-06T15:37:53.886Z,-0.13
2023-02-06T15:42:58.655Z,0.06
2023-02-06T15:48:10.006Z,-0.11
2023-02-06T15:53:20.669Z,-0.29
2023-02-06T15:58:26.170Z,-0.25
2023-02-06T16:03:31.419Z,-0.36
2023-02-06T16:08:38.145Z,-0.59
2023-02-06T16:13:46.581Z,-0.80
2023-02-06T16:18:52.267Z,-1.02
2023-02-06T16:24:08.046Z,-1.05
2023-02-06T16:29:25.634Z,-1.11
2023-02-06T16:34:40.940Z,-1.19
2023-02-06T16:39:44.819Z,-1.27
2023-02-06T16:44:51.324Z,-1.43
2023-02-06T16:49:54.207Z,-1.58
2023-02-06T16:54:58.949Z,-1.54
2023-02-06T17:00:05.127Z,-1.73
2023-02-06T17:05:08.680Z,-1.89
2023-02-06T17:10:14.748Z,-1.96
2023-02-06T17:15:20.314Z,-2.10
2023-02-06T17:20:30.169Z,-2.03
2023-02-06T17:25:33.496Z,-2.20
2023-02-06T17:30:38.634Z,-2.29
2023-02-06T17:35:41.751Z,-2.33
2023-02-06T17:40:44.854Z,-2.47
2023-02-06T17:45:49.251Z,-2.56
2023-02-06T17:50:52.156Z,-2.51
2023-02-06T17:55:55.096Z,-2.63
2023-02-06T18:00:59.429Z,-2.66
2023-02-06T18:06:03.349Z,-2.94
2023-02-06T18:11:11.515Z,-3.01
2023-02-06T18:16:17.400Z,-3.00
2023-02-06T18:21:21.910Z,-3.08
2023-02-06T18:26:25.259Z,-3.16
2023-02-06T18:31:33.178Z,-3.27
2023-02-06T18:36:38.026Z,-3.50
2023-02-06T18:41:58.629Z,-3.49
2023-02-06T18:47:02.931Z,-3.54
2023-02-06T18:52:07.033Z,-3.58
2023-02-06T18:57:09.981Z,-3.70
2023-02-06T19:02:14.383Z,-3.80
2023-02-06T19:07:17.359Z,-3.89
2023-02-06T19:12:20.295Z,-4.06
2023-02-06T19:17:25.903Z,-4.02
2023-02-06T19:22:28.851Z,-4.25
2023-02-06T19:27:32.127Z,-4.18
2023-02-06T19:32:36.551Z,-4.14
2023-02-06T19:37:40.149Z,-4.55
2023-02-06T19:42:43.127Z,-4.43
2023-02-06T19:47:47.401Z,-4.45
2023-02-06T19:52:50.476Z,-4.85
2023-02-06T19:57:53.347Z,-4.70
2023-02-06T20:02:57.576Z,-4.56
2023-02-06T20:08:00.869Z,-4.75
2023-02-06T20:13:03.811Z,-4.85
2023-02-06T20:18:08.131Z,-5.07
2023-02-06T20:23:11.064Z,-4.94
2023-02-06T20:28:14.203Z,-4.85
2023-02-06T20:33:18.481Z,-5.04
2023-02-06T20:38:21.430Z,-5.07
2023-02-06T20:43:24.341Z,-5.36
2023-02-06T20:48:28.637Z,-5.30
2023-02-06T20:53:31.919Z,-4.98
2023-02-06T20:58:34.867Z,-5.09
2023-02-06T21:03:39.702Z,-5.16
2023-02-06T21:08:43.359Z,-5.21
2023-02-06T21:13:46.272Z,-5.43
2023-02-06T21:18:50.582Z,-5.54
2023-02-06T21:23:55.760Z,-5.47
2023-02-06T21:29:00.230Z,-5.79
2023-02-06T21:34:08.268Z,-5.64
2023-02-06T21:39:15.434Z,-5.67
2023-02-06T21:44:18.680Z,-5.61
2023-02-06T21:49:23.593Z,-5.84
2023-02-06T21:54:26.847Z,-5.83
2023-02-06T21:59:32.680Z,-6.11
2023-02-06T22:04:36.982Z,-6.10
2023-02-06T22:09:40.163Z,-6.19
2023-02-06T22:14:43.073Z,-6.28
2023-02-06T22:19:48.784Z,-6.30
2023-02-06T22:24:51.732Z,-6.10
2023-02-06T22:29:54.839Z,-6.53
2023-02-06T22:35:01.273Z,-6.71
2023-02-06T22:40:04.376Z,-6.40
2023-02-06T22:45:08.486Z,-6.63
2023-02-06T22:50:12.741Z,-6.63
2023-02-06T22:55:15.766Z,-6.45
2023-02-06T23:00:18.633Z,-6.50
2023-02-06T23:05:22.893Z,-6.71
2023-02-06T23:10:25.785Z,-6.76
2023-02-06T23:15:28.652Z,-6.80
2023-02-06T23:20:32.859Z,-6.55
2023-02-06T23:25:36.220Z,-6.80
2023-02-06T23:30:39.481Z,-6.92
2023-02-06T23:35:44.635Z,-6.81
2023-02-06T23:40:48.719Z,-7.16
2023-02-06T23:45:51.652Z,-7.12
2023-02-06T23:50:55.932Z,-7.14
2023-02-06T23:55:59.089Z,-7.19
